createdAt,value
2022-12-05T00:00:55.786Z,101849.13
2022-12-05T00:03:22.984Z,101851.69
2022-12-05T00:05:49.842Z,101835.25
2022-12-05T00:08:16.419Z,101837.66
2022-12-05T00:10:43.236Z,101834.91
2022-12-05T00:13:12.533Z,101840.22
2022-12-05T00:15:40.859Z,101837.56
2022-12-05T00:18:07.545Z,101835.09
2022-12-05T00:20:34.076Z,101825.50
2022-12-05T00:23:00.603Z,101813.38
2022-12-05T00:25:27.465Z,101809.75
2022-12-05T00:27:53.886Z,101813.38
2022-12-05T00:30:20.308Z,101812.69
2022-12-05T00:32:46.781Z,101807.28
2022-12-05T00:35:13.192Z,101824.84
2022-12-05T00:37:39.584Z,101824.84
2022-12-05T00:40:06.795Z,101814.50
2022-12-05T00:42:33.267Z,101817.06
2022-12-05T00:44:59.668Z,101817.06
2022-12-05T00:47:26.086Z,101805.69
2022-12-05T00:49:52.496Z,101822.84
2022-12-05T00:52:18.968Z,101806.44
2022-12-05T00:54:45.460Z,101819.25
2022-12-05T00:57:12.022Z,101809.00
2022-12-05T00:59:39.951Z,101813.00
2022-12-05T01:02:06.348Z,101814.69
2022-12-05T01:04:32.857Z,101805.97
2022-12-05T01:06:59.528Z,101802.56
2022-12-05T01:09:26.171Z,101809.56
2022-12-05T01:11:53.140Z,101809.22
2022-12-05T01:14:22.501Z,101811.94
2022-12-05T01:16:50.846Z,101814.38
2022-12-05T01:19:23.890Z,101801.34
2022-12-05T01:21:51.374Z,101809.00
2022-12-05T01:24:19.153Z,101808.03
2022-12-05T01:26:46.801Z,101819.41
2022-12-05T01:29:15.157Z,101803.91
2022-12-05T01:31:45.208Z,101809.00
2022-12-05T01:34:17.363Z,101810.31
2022-12-05T01:36:45.014Z,101801.97
2022-12-05T01:39:12.722Z,101809.47
2022-12-05T01:41:46.176Z,101808.44
2022-12-05T01:44:12.685Z,101807.47
2022-12-05T01:46:48.509Z,101783.09
2022-12-05T01:49:20.826Z,101803.75
2022-12-05T01:51:56.055Z,101796.88
2022-12-05T01:54:23.485Z,101791.75
2022-12-05T01:56:53.704Z,101798.34
2022-12-05T01:59:21.622Z,101801.28
2022-12-05T02:01:48.327Z,101796.63
2022-12-05T02:04:15.226Z,101780.25
2022-12-05T02:06:44.653Z,101796.53
2022-12-05T02:09:11.043Z,101792.84
2022-12-05T02:11:51.550Z,101788.38
2022-12-05T02:14:31.413Z,101785.63
2022-12-05T02:17:39.861Z,101789.81
2022-12-05T02:20:24.779Z,101782.59
2022-12-05T02:23:12.874Z,101767.72
2022-12-05T02:26:00.706Z,101782.59
2022-12-05T02:28:27.084Z,101778.25
2022-12-05T02:31:00.129Z,101773.22
2022-12-05T02:33:45.565Z,101767.53
2022-12-05T02:36:25.627Z,101755.78
2022-12-05T02:39:16.593Z,101755.38
2022-12-05T02:41:50.787Z,101768.38
2022-12-05T02:44:31.880Z,101757.19
2022-12-05T02:47:00.077Z,101770.19
2022-12-05T02:49:31.864Z,101753.50
2022-12-05T02:52:01.677Z,101756.16
2022-12-05T02:54:33.526Z,101763.69
2022-12-05T02:57:01.157Z,101744.75
2022-12-05T02:59:28.552Z,101742.31
2022-12-05T03:01:55.759Z,101751.69
2022-12-05T03:04:24.992Z,101748.09
2022-12-05T03:06:57.819Z,101755.19
2022-12-05T03:09:27.205Z,101751.69
2022-12-05T03:12:08.821Z,101743.63
2022-12-05T03:14:50.820Z,101746.47
2022-12-05T03:17:23.104Z,101739.66
2022-12-05T03:20:00.309Z,101749.88
2022-12-05T03:22:49.547Z,101739.56
2022-12-05T03:25:17.041Z,101739.66
2022-12-05T03:27:49.851Z,101740.31
2022-12-05T03:30:19.688Z,101738.69
2022-12-05T03:32:55.486Z,101750.84
2022-12-05T03:35:43.314Z,101741.81
2022-12-05T03:38:24.994Z,101740.22
2022-12-05T03:41:08.946Z,101740.31
2022-12-05T03:43:59.022Z,101736.50
2022-12-05T03:46:41.107Z,101735.00
2022-12-05T03:49:20.674Z,101728.25
2022-12-05T03:52:00.635Z,101734.81
2022-12-05T03:54:32.610Z,101721.34
2022-12-05T03:57:09.233Z,101735.00
2022-12-05T03:59:51.639Z,101730.63
2022-12-05T04:02:46.711Z,101736.38
2022-12-05T04:05:34.344Z,101727.88
2022-12-05T04:08:21.043Z,101728.31
2022-12-05T04:10:49.847Z,101736.38
2022-12-05T04:13:33.471Z,101726.19
2022-12-05T04:16:42.885Z,101736.94
2022-12-05T04:19:14.659Z,101736.28
2022-12-05T04:21:45.426Z,101745.84
2022-12-05T04:24:35.221Z,101743.19
2022-12-05T04:27:21.276Z,101743.88
2022-12-05T04:30:24.969Z,101734.84
2022-12-05T04:32:57.873Z,101733.63
2022-12-05T04:35:32.230Z,101734.47
2022-12-05T04:38:05.802Z,101739.78
2022-12-05T04:40:54.073Z,101742.06
2022-12-05T04:43:21.937Z,101739.78
2022-12-05T04:45:50.604Z,101747.38
2022-12-05T04:48:18.328Z,101750.03
2022-12-05T04:50:48.530Z,101732.78
2022-12-05T04:53:16.145Z,101738.78
2022-12-05T04:55:48.242Z,101745.66
2022-12-05T04:58:19.190Z,101743.09
2022-12-05T05:01:07.217Z,101742.34
2022-12-05T05:03:44.021Z,101741.59
2022-12-05T05:06:14.596Z,101745.66
2022-12-05T05:08:52.891Z,101750.88
2022-12-05T05:11:25.167Z,101740.75
2022-12-05T05:13:51.665Z,101741.22
2022-12-05T05:16:30.338Z,101747.38
2022-12-05T05:18:57.465Z,101730.13
2022-12-05T05:21:32.550Z,101737.69
2022-12-05T05:23:59.526Z,101729.94
2022-12-05T05:26:27.198Z,101729.50
2022-12-05T05:28:54.507Z,101729.25
2022-12-05T05:31:21.475Z,101725.03
2022-12-05T05:33:52.386Z,101722.38
2022-12-05T05:36:19.519Z,101720.31
2022-12-05T05:38:49.286Z,101735.00
2022-12-05T05:41:21.143Z,101728.94
2022-12-05T05:43:48.271Z,101730.06
2022-12-05T05:46:15.978Z,101732.72
2022-12-05T05:48:42.562Z,101720.91
2022-12-05T05:51:11.210Z,101734.63
2022-12-05T05:53:38.225Z,101734.53
2022-12-05T05:56:07.129Z,101737.28
2022-12-05T05:58:33.820Z,101739.94
2022-12-05T06:01:27.516Z,101742.41
2022-12-05T06:03:54.274Z,101741.97
2022-12-05T06:06:22.197Z,101736.84
2022-12-05T06:08:49.418Z,101735.13
2022-12-05T06:11:25.885Z,101737.78
2022-12-05T06:13:58.045Z,101727.44
2022-12-05T06:16:25.278Z,101733.81
2022-12-05T06:18:52.977Z,101741.56
2022-12-05T06:21:20.110Z,101726.91
2022-12-05T06:23:46.562Z,101715.44
2022-12-05T06:26:15.696Z,101746.13
2022-12-05T06:28:42.845Z,101743.97
2022-12-05T06:31:18.371Z,101747.41
2022-12-05T06:33:45.298Z,101751.84
2022-12-05T06:36:15.680Z,101745.97
2022-12-05T06:38:42.793Z,101742.38
2022-12-05T06:41:16.018Z,101746.81
2022-12-05T06:43:42.794Z,101735.09
2022-12-05T06:46:11.902Z,101753.25
2022-12-05T06:48:38.696Z,101754.31
2022-12-05T06:51:06.988Z,101751.97
2022-12-05T06:53:33.508Z,101758.97
2022-12-05T06:56:02.070Z,101748.75
2022-12-05T06:58:28.881Z,101743.34
2022-12-05T07:01:14.481Z,101740.28
2022-12-05T07:03:41.144Z,101734.44
2022-12-05T07:06:08.095Z,101760.56
2022-12-05T07:08:35.355Z,101757.91
2022-12-05T07:11:02.635Z,101746.84
2022-12-05T07:13:29.698Z,101743.25
2022-12-05T07:15:56.404Z,101749.59
2022-12-05T07:18:23.186Z,101748.47
2022-12-05T07:21:15.431Z,101749.22
2022-12-05T07:23:44.255Z,101747.72
2022-12-05T07:26:13.893Z,101749.50
2022-12-05T07:28:40.771Z,101752.06
2022-12-05T07:31:12.583Z,101755.66
2022-12-05T07:33:39.600Z,101757.75
2022-12-05T07:36:10.800Z,101752.53
2022-12-05T07:38:38.053Z,101752.63
2022-12-05T07:41:13.247Z,101751.84
2022-12-05T07:43:40.779Z,101755.38
2022-12-05T07:46:08.916Z,101744.47
2022-12-05T07:48:35.411Z,101739.19
2022-12-05T07:51:06.519Z,101753.19
2022-12-05T07:53:34.388Z,101755.44
2022-12-05T07:56:02.719Z,101754.25
2022-12-05T07:58:29.725Z,101744.03
2022-12-05T08:00:57.418Z,101752.53
2022-12-05T08:03:23.907Z,101742.41
2022-12-05T08:05:50.873Z,101750.16
2022-12-05T08:08:17.360Z,101742.41
2022-12-05T08:10:43.859Z,101758.78
2022-12-05T08:13:10.302Z,101740.13
2022-12-05T08:15:36.798Z,101746.28
2022-12-05T08:18:03.311Z,101757.47
2022-12-05T08:20:30.571Z,101750.63
2022-12-05T08:22:57.311Z,101761.91
2022-12-05T08:25:23.819Z,101758.59
2022-12-05T08:27:50.312Z,101762.09
2022-12-05T08:30:16.912Z,101765.00
2022-12-05T08:32:43.363Z,101764.94
2022-12-05T08:35:10.155Z,101754.88
2022-12-05T08:37:36.604Z,101762.75
2022-12-05T08:40:03.832Z,101757.53
2022-12-05T08:42:30.237Z,101765.50
2022-12-05T08:44:57.190Z,101756.94
2022-12-05T08:47:23.788Z,101774.38
2022-12-05T08:49:50.311Z,101777.13
2022-12-05T08:52:16.829Z,101779.88
2022-12-05T08:54:43.278Z,101763.28
2022-12-05T08:57:09.701Z,101767.56
2022-12-05T08:59:36.105Z,101786.69
2022-12-05T09:02:02.508Z,101782.34
2022-12-05T09:04:28.993Z,101776.28
2022-12-05T09:06:55.728Z,101789.25
2022-12-05T09:09:22.152Z,101778.91
2022-12-05T09:11:50.845Z,101783.88
2022-12-05T09:14:17.853Z,101789.16
2022-12-05T09:16:46.134Z,101770.47
2022-12-05T09:19:15.746Z,101766.88
2022-12-05T09:21:42.890Z,101789.53
2022-12-05T09:24:11.742Z,101792.09
2022-12-05T09:26:39.011Z,101782.78
2022-12-05T09:29:06.578Z,101781.84
2022-12-05T09:31:36.962Z,101800.13
2022-12-05T09:34:03.494Z,101795.09
2022-12-05T09:36:31.436Z,101794.06
2022-12-05T09:39:04.406Z,101787.22
2022-12-05T09:42:05.381Z,101789.63
2022-12-05T09:44:53.006Z,101788.09
2022-12-05T09:47:44.566Z,101789.78
2022-12-05T09:50:21.772Z,101790.91
2022-12-05T09:53:04.133Z,101787.44
2022-12-05T09:55:35.760Z,101783.34
2022-12-05T09:58:04.070Z,101779.25
2022-12-05T10:00:33.165Z,101775.56
2022-12-05T10:03:26.928Z,101778.97
2022-12-05T10:06:06.951Z,101779.91
2022-12-05T10:08:41.870Z,101775.75
2022-12-05T10:11:23.016Z,101776.69
2022-12-05T10:14:18.311Z,101781.97
2022-12-05T10:16:55.814Z,101780.28
2022-12-05T10:19:38.139Z,101789.00
2022-12-05T10:22:20.878Z,101780.56
2022-12-05T10:24:53.170Z,101777.81
2022-12-05T10:27:35.398Z,101778.75
2022-12-05T10:30:14.515Z,101767.91
2022-12-05T10:32:52.420Z,101778.94
2022-12-05T10:35:40.194Z,101761.88
2022-12-05T10:38:32.763Z,101778.84
2022-12-05T10:41:05.386Z,101772.09
2022-12-05T10:43:34.952Z,101766.03
2022-12-05T10:46:02.339Z,101771.25
2022-12-05T10:48:31.560Z,101776.38
2022-12-05T10:50:58.426Z,101760.81
2022-12-05T10:53:36.958Z,101757.44
2022-12-05T10:58:58.594Z,101747.41
2022-12-05T11:01:27.770Z,101753.72
2022-12-05T11:04:13.537Z,101759.44
2022-12-05T11:06:50.659Z,101753.22
2022-12-05T11:09:21.480Z,101751.50
2022-12-05T11:11:59.193Z,101744.59
2022-12-05T11:14:26.998Z,101762.00
2022-12-05T11:16:56.059Z,101749.53
2022-12-05T11:19:22.462Z,101745.94
2022-12-05T11:21:49.810Z,101744.97
2022-12-05T11:24:25.371Z,101751.72
2022-12-05T11:26:52.114Z,101735.50
2022-12-05T11:29:35.871Z,101750.50
2022-12-05T11:32:17.082Z,101755.03
2022-12-05T11:34:59.395Z,101740.00
2022-12-05T11:37:33.245Z,101728.53
2022-12-05T11:40:01.649Z,101737.25
2022-12-05T11:42:45.041Z,101722.19
2022-12-05T11:45:29.182Z,101733.44
2022-12-05T11:48:04.407Z,101729.84
2022-12-05T11:50:41.878Z,101730.81
2022-12-05T11:53:25.210Z,101724.66
2022-12-05T11:55:51.549Z,101729.22
2022-12-05T11:58:45.818Z,101723.91
2022-12-05T12:01:46.143Z,101717.94
2022-12-05T12:04:45.251Z,101730.34
2022-12-05T12:07:29.890Z,101731.88
2022-12-05T12:10:10.189Z,101720.59
2022-12-05T12:13:07.310Z,101720.19
2022-12-05T12:15:39.638Z,101725.63
2022-12-05T12:18:30.870Z,101725.50
2022-12-05T12:21:03.434Z,101724.66
2022-12-05T12:23:51.697Z,101733.44
2022-12-05T12:26:36.617Z,101730.72
2022-12-05T12:29:19.135Z,101719.72
2022-12-05T12:31:55.360Z,101724.09
2022-12-05T12:34:37.354Z,101710.44
2022-12-05T12:37:22.271Z,101716.41
2022-12-05T12:39:55.850Z,101716.59
2022-12-05T12:42:36.440Z,101719.22
2022-12-05T12:45:23.380Z,101718.59
2022-12-05T12:48:03.522Z,101709.78
2022-12-05T12:50:41.861Z,101713.28
2022-12-05T12:53:24.927Z,101709.41
2022-12-05T12:56:09.586Z,101717.16
2022-12-05T12:58:57.423Z,101712.91
2022-12-05T13:01:29.868Z,101711.00
2022-12-05T13:04:02.885Z,101709.22
2022-12-05T13:06:35.847Z,101699.56
2022-12-05T13:09:08.087Z,101703.16
2022-12-05T13:11:39.821Z,101694.53
2022-12-05T13:14:12.282Z,101699.66
2022-12-05T13:16:46.155Z,101681.66
2022-12-05T13:19:26.155Z,101702.31
2022-12-05T13:21:53.804Z,101699.75
2022-12-05T13:24:23.591Z,101691.88
2022-12-05T13:26:50.592Z,101691.78
2022-12-05T13:29:25.889Z,101694.63
2022-12-05T13:31:53.013Z,101691.59
2022-12-05T13:34:33.887Z,101706.19
2022-12-05T13:37:30.214Z,101688.19
2022-12-05T13:40:16.887Z,101703.13
2022-12-05T13:42:44.245Z,101690.22
2022-12-05T13:45:17.280Z,101692.72
2022-12-05T13:47:56.105Z,101697.06
2022-12-05T13:50:46.021Z,101698.19
2022-12-05T13:53:34.548Z,101699.03
2022-12-05T13:56:11.995Z,101696.59
2022-12-05T13:58:45.896Z,101699.34
2022-12-05T14:01:27.655Z,101708.13
2022-12-05T14:04:00.691Z,101710.88
2022-12-05T14:06:38.845Z,101707.28
2022-12-05T14:09:17.152Z,101705.47
2022-12-05T14:12:15.770Z,101706.97
2022-12-05T14:14:57.299Z,101704.63
2022-12-05T14:17:43.427Z,101703.69
2022-12-05T14:20:15.666Z,101696.00
2022-12-05T14:23:03.420Z,101703.94
2022-12-05T14:26:09.127Z,101706.66
2022-12-05T14:29:06.354Z,101706.75
2022-12-05T14:32:17.842Z,101695.47
2022-12-05T14:35:05.632Z,101707.84
2022-12-05T14:37:37.778Z,101700.13
2022-12-05T14:40:20.438Z,101705.41
2022-12-05T14:42:57.058Z,101701.06
2022-12-05T14:45:25.860Z,101692.34
2022-12-05T14:47:55.438Z,101692.69
2022-12-05T14:50:35.148Z,101700.38
2022-12-05T14:53:24.000Z,101697.63
2022-12-05T14:55:54.133Z,101698.75
2022-12-05T14:58:36.071Z,101699.59
2022-12-05T15:01:09.009Z,101692.97
2022-12-05T15:03:40.072Z,101694.00
2022-12-05T15:06:15.467Z,101701.66
2022-12-05T15:08:50.025Z,101700.06
2022-12-05T15:11:28.321Z,101696.66
2022-12-05T15:14:08.148Z,101700.72
2022-12-05T15:16:38.418Z,101706.09
2022-12-05T15:19:07.119Z,101709.09
2022-12-05T15:21:39.340Z,101694.09
2022-12-05T15:24:12.502Z,101712.53
2022-12-05T15:26:47.301Z,101707.66
2022-12-05T15:29:23.485Z,101718.09
2022-12-05T15:31:53.087Z,101713.75
2022-12-05T15:34:29.931Z,101710.22
2022-12-05T15:37:20.226Z,101709.38
2022-12-05T15:39:55.098Z,101713.41
2022-12-05T15:42:30.697Z,101708.69
2022-12-05T15:45:15.415Z,101722.03
2022-12-05T15:47:46.977Z,101713.75
2022-12-05T15:50:19.881Z,101715.38
2022-12-05T15:52:53.781Z,101717.19
2022-12-05T15:55:49.271Z,101718.97
2022-12-05T15:58:36.755Z,101714.53
2022-12-05T16:01:15.084Z,101719.91
2022-12-05T16:03:56.307Z,101711.97
2022-12-05T16:06:26.821Z,101710.25
2022-12-05T16:08:54.621Z,101699.06
2022-12-05T16:11:21.511Z,101717.34
2022-12-05T16:13:51.267Z,101711.28
2022-12-05T16:16:22.008Z,101713.75
2022-12-05T16:19:21.845Z,101705.66
2022-12-05T16:22:15.901Z,101703.00
2022-12-05T16:24:48.220Z,101706.84
2022-12-05T16:27:14.602Z,101712.13
2022-12-05T16:29:41.757Z,101696.03
2022-12-05T16:32:21.671Z,101704.38
2022-12-05T16:34:48.768Z,101701.84
2022-12-05T16:37:29.120Z,101702.50
2022-12-05T16:39:57.139Z,101699.59
2022-12-05T16:42:30.537Z,101696.63
2022-12-05T16:45:02.345Z,101715.91
2022-12-05T16:47:40.884Z,101702.69
2022-12-05T16:50:25.124Z,101704.38
2022-12-05T16:53:04.382Z,101708.91
2022-12-05T16:55:37.296Z,101710.88
2022-12-05T16:58:05.215Z,101698.75
2022-12-05T17:00:33.068Z,101709.94
2022-12-05T17:03:25.656Z,101705.75
2022-12-05T17:05:46.166Z,101708.41
2022-12-05T17:08:12.693Z,101702.34
2022-12-05T17:10:39.587Z,101694.63
2022-12-05T17:13:06.558Z,101706.53
2022-12-05T17:15:33.077Z,101704.03
2022-12-05T17:18:00.613Z,101708.31
2022-12-05T17:20:28.397Z,101699.69
2022-12-05T17:22:54.923Z,101718.03
2022-12-05T17:25:21.361Z,101710.09
2022-12-05T17:27:47.799Z,101698.06
2022-12-05T17:30:14.889Z,101697.41
2022-12-05T17:32:41.906Z,101692.00
2022-12-05T17:35:19.939Z,101699.78
2022-12-05T17:37:46.978Z,101699.78
2022-12-05T17:40:13.830Z,101704.28
2022-12-05T17:42:41.249Z,101706.09
2022-12-05T17:45:15.343Z,101702.59
2022-12-05T17:47:45.099Z,101698.50
2022-12-05T17:50:17.517Z,101701.00
2022-12-05T17:52:45.135Z,101704.38
2022-12-05T17:55:24.928Z,101702.69
2022-12-05T17:57:51.463Z,101693.22
2022-12-05T18:00:18.934Z,101701.94
2022-12-05T18:02:46.323Z,101708.06
2022-12-05T18:05:14.280Z,101707.13
2022-12-05T18:07:42.443Z,101699.59
2022-12-05T18:10:13.071Z,101713.16
2022-12-05T18:12:39.857Z,101712.44
2022-12-05T18:15:06.899Z,101713.94
2022-12-05T18:17:33.318Z,101705.44
2022-12-05T18:19:59.770Z,101715.47
2022-12-05T18:22:27.654Z,101686.81
2022-12-05T18:24:54.446Z,101710.53
2022-12-05T18:27:21.551Z,101713.44
2022-12-05T18:29:48.827Z,101684.25
2022-12-05T18:32:15.807Z,101711.66
2022-12-05T18:34:42.367Z,101702.00
2022-12-05T18:37:10.734Z,101701.16
2022-12-05T18:39:38.092Z,101704.38
2022-12-05T18:42:10.365Z,101716.56
2022-12-05T18:44:41.258Z,101705.91
2022-12-05T18:47:07.693Z,101715.47
2022-12-05T18:49:34.169Z,101713.06
2022-12-05T18:52:00.578Z,101712.13
2022-12-05T18:54:27.499Z,101718.97
2022-12-05T18:56:53.995Z,101714.63
2022-12-05T18:59:22.288Z,101707.59
2022-12-05T19:01:49.338Z,101713.75
2022-12-05T19:04:20.008Z,101717.09
2022-12-05T19:06:54.473Z,101704.03
2022-12-05T19:09:23.668Z,101720.44
2022-12-05T19:11:52.153Z,101718.63
2022-12-05T19:14:19.456Z,101708.97
2022-12-05T19:16:49.216Z,101718.63
2022-12-05T19:19:17.680Z,101708.03
2022-12-05T19:21:45.357Z,101716.84
2022-12-05T19:24:17.195Z,101709.84
2022-12-05T19:26:44.836Z,101709.84
2022-12-05T19:29:12.441Z,101714.06
2022-12-05T19:31:39.521Z,101705.41
2022-12-05T19:34:07.352Z,101705.56
2022-12-05T19:36:35.957Z,101705.28
2022-12-05T19:39:16.081Z,101713.91
2022-12-05T19:41:43.212Z,101704.63
2022-12-05T19:44:10.283Z,101702.75
2022-12-05T19:46:36.793Z,101706.97
2022-12-05T19:49:06.497Z,101710.56
2022-12-05T19:51:33.125Z,101712.28
2022-12-05T19:54:01.167Z,101713.06
2022-12-05T19:56:29.530Z,101720.13
2022-12-05T19:58:57.529Z,101708.78
2022-12-05T20:01:25.291Z,101719.28
2022-12-05T20:03:57.502Z,101708.78
2022-12-05T20:06:25.231Z,101707.09
2022-12-05T20:08:53.540Z,101709.63
2022-12-05T20:11:24.718Z,101707.84
2022-12-05T20:13:53.353Z,101707.09
2022-12-05T20:16:21.955Z,101694.13
2022-12-05T20:18:49.908Z,101697.53
2022-12-05T20:21:20.245Z,101695.84
2022-12-05T20:23:46.671Z,101696.75
2022-12-05T20:26:19.107Z,101696.31
2022-12-05T20:28:46.332Z,101703.31
2022-12-05T20:31:16.046Z,101704.16
2022-12-05T20:33:43.922Z,101700.59
2022-12-05T20:36:19.284Z,101701.44
2022-12-05T20:38:46.499Z,101693.59
2022-12-05T20:41:16.335Z,101691.69
2022-12-05T20:43:43.869Z,101689.22
2022-12-05T20:46:14.147Z,101686.22
2022-12-05T20:48:40.946Z,101676.00
2022-12-05T20:51:12.001Z,101685.56
2022-12-05T20:53:40.920Z,101692.47
2022-12-05T20:56:13.260Z,101666.53
2022-12-05T20:58:41.140Z,101654.34
2022-12-05T21:01:10.055Z,101665.41
2022-12-05T21:03:39.395Z,101673.84
2022-12-05T21:06:11.336Z,101676.50
2022-12-05T21:08:38.671Z,101659.25
2022-12-05T21:11:06.507Z,101655.09
2022-12-05T21:13:33.123Z,101673.09
2022-12-05T21:16:13.859Z,101657.06
2022-12-05T21:18:40.920Z,101665.78
2022-12-05T21:21:11.385Z,101664.53
2022-12-05T21:23:37.857Z,101667.97
2022-12-05T21:26:07.358Z,101663.53
2022-12-05T21:28:34.651Z,101658.78
2022-12-05T21:31:12.140Z,101663.53
2022-12-05T21:33:39.938Z,101668.13
2022-12-05T21:36:08.141Z,101668.97
2022-12-05T21:38:35.800Z,101669.84
2022-12-05T21:41:04.554Z,101653.97
2022-12-05T21:43:32.662Z,101656.81
2022-12-05T21:45:59.346Z,101661.13
2022-12-05T21:48:26.365Z,101661.72
2022-12-05T21:50:53.363Z,101649.59
2022-12-05T21:53:20.757Z,101652.84
2022-12-05T21:55:47.573Z,101645.66
2022-12-05T21:58:14.848Z,101630.91
2022-12-05T22:00:42.642Z,101649.94
2022-12-05T22:03:14.539Z,101644.56
2022-12-05T22:05:41.981Z,101640.38
2022-12-05T22:08:08.499Z,101639.53
2022-12-05T22:10:35.225Z,101629.97
2022-12-05T22:13:01.642Z,101629.78
2022-12-05T22:15:28.225Z,101639.81
2022-12-05T22:17:54.954Z,101639.81
2022-12-05T22:20:21.596Z,101645.78
2022-12-05T22:22:48.058Z,101634.44
2022-12-05T22:25:15.049Z,101632.63
2022-12-05T22:27:41.904Z,101631.69
2022-12-05T22:30:08.870Z,101644.69
2022-12-05T22:32:35.322Z,101646.38
2022-12-05T22:35:03.999Z,101633.31
2022-12-05T22:37:30.888Z,101633.31
2022-12-05T22:39:57.880Z,101627.94
2022-12-05T22:42:27.122Z,101632.09
2022-12-05T22:44:53.575Z,101629.25
2022-12-05T22:47:20.149Z,101628.41
2022-12-05T22:49:46.795Z,101625.66
2022-12-05T22:52:13.392Z,101606.34
2022-12-05T22:54:40.019Z,101624.72
2022-12-05T22:57:06.545Z,101632.50
2022-12-05T22:59:33.198Z,101609.13
2022-12-05T23:01:59.602Z,101589.50
2022-12-05T23:04:26.134Z,101604.28
2022-12-05T23:06:52.813Z,101622.84
2022-12-05T23:09:20.744Z,101620.91
2022-12-05T23:11:50.499Z,101624.22
2022-12-05T23:14:17.197Z,101619.09
2022-12-05T23:16:43.749Z,101613.03
2022-12-05T23:19:10.258Z,101608.31
2022-12-05T23:21:38.611Z,101616.06
2022-12-05T23:24:08.257Z,101602.09
2022-12-05T23:26:39.100Z,101606.22
2022-12-05T23:29:05.907Z,101610.41
2022-12-05T23:31:32.413Z,101604.44
2022-12-05T23:34:03.173Z,101604.06
2022-12-05T23:36:30.242Z,101598.09
2022-12-05T23:38:56.780Z,101594.41
2022-12-05T23:41:24.802Z,101604.66
2022-12-05T23:43:52.284Z,101606.22
2022-12-05T23:46:22.161Z,101598.19
2022-12-05T23:48:49.086Z,101603.41
2022-12-05T23:51:20.816Z,101592.03
2022-12-05T23:53:51.742Z,101596.31
2022-12-05T23:56:21.761Z,101582.38
2022-12-05T23:58:48.263Z,101591.19
